Bahawalpur Weather



Bahawalpur's Current Weather

Temprature 28.776o clear sky

clear sky

Rain: 0 %

Min Temprature28.776o
Max Temprature28.776o
Humidity21
Wind Speed2.27 m/h
Sun Rise05:41:16
Sun Set18:42:41
Current Time: 21-Apr-2019 05:41:56
Lat/Lon: 29.39, 71.66




Bahawalpur's Geo Location



Bahawalpur's Weather Forecast

Time Overall Temp Min Temp Max Temp Humidity Wind Speed Rain
21-Apr-2019 (Sun)
08:00:00 clear sky 32.390 32.389 32.390 16 2.88 m/h 0 %
11:00:00 clear sky 37.650 37.650 37.650 14 4.25 m/h 0 %
14:00:00 clear sky 40.050 40.050 40.050 11 4.21 m/h 0 %
17:00:00 clear sky 39.950 39.950 39.950 11 3.57 m/h 0 %
20:00:00 clear sky 34.950 34.950 34.950 14 1.34 m/h 0 %
23:00:00 clear sky 33.530 33.530 33.530 15 1.9 m/h 0 %
22-Apr-2019 (Mon)
02:00:00 clear sky 31.870 31.870 31.870 17 1.88 m/h 0 %
05:00:00 clear sky 30.134 30.134 30.134 19 1.29 m/h 0 %
08:00:00 clear sky 34.316 34.316 34.316 16 1.43 m/h 0 %
11:00:00 clear sky 39.720 39.720 39.720 13 2.81 m/h 0 %
14:00:00 clear sky 42.615 42.615 42.615 11 4.29 m/h 0 %
17:00:00 clear sky 42.431 42.431 42.431 10 3.54 m/h 0 %
20:00:00 clear sky 37.250 37.250 37.250 13 0.63 m/h 0 %
23:00:00 clear sky 36.096 36.096 36.096 14 2.04 m/h 0 %
23-Apr-2019 (Tue)
02:00:00 clear sky 33.677 33.677 33.677 15 1.83 m/h 0 %
05:00:00 clear sky 31.756 31.756 31.756 17 2 m/h 0 %
08:00:00 broken clouds 35.957 35.957 35.957 15 4.86 m/h 0 %
11:00:00 scattered clouds 42.550 42.550 42.550 9 6.29 m/h 0 %
14:00:00 clear sky 44.550 44.550 44.550 8 5.85 m/h 0 %
17:00:00 clear sky 43.650 43.650 43.650 8 5.1 m/h 0 %
20:00:00 scattered clouds 39.128 39.128 39.128 9 5.19 m/h 0 %
23:00:00 broken clouds 37.750 37.750 37.750 9 5.3 m/h 0 %
24-Apr-2019 (Wed)
02:00:00 scattered clouds 35.182 35.182 35.182 12 5.47 m/h 0 %
05:00:00 scattered clouds 32.734 32.734 32.734 20 5.25 m/h 0 %
08:00:00 clear sky 35.650 35.650 35.650 19 5.54 m/h 0 %
11:00:00 clear sky 41.208 41.208 41.208 10 5.23 m/h 0 %
14:00:00 clear sky 42.650 42.650 42.650 7 4.61 m/h 0 %
17:00:00 clear sky 41.950 41.950 41.950 7 3.26 m/h 0 %
20:00:00 clear sky 36.655 36.655 36.655 13 2.07 m/h 0 %
23:00:00 scattered clouds 32.145 32.145 32.145 29 7.25 m/h 0 %
25-Apr-2019 (Thu)
02:00:00 light rain 30.750 30.750 30.750 32 4.91 m/h 113 %
05:00:00 light rain 28.672 28.672 28.672 39 4.62 m/h 69 %
08:00:00 light rain 29.620 29.620 29.620 41 2.42 m/h 75 %
11:00:00 light rain 32.390 32.390 32.390 33 2.09 m/h 19 %
14:00:00 few clouds 38.350 38.350 38.350 20 0.84 m/h 0 %
17:00:00 clear sky 38.411 38.411 38.411 18 1.22 m/h 0 %
20:00:00 clear sky 35.625 35.625 35.625 21 1.95 m/h 0 %
23:00:00 clear sky 34.543 34.543 34.543 22 1.79 m/h 0 %
26-Apr-2019 (Fri)
02:00:00 clear sky 32.332 32.332 32.332 24 3.39 m/h 0 %
05:00:00 clear sky 30.306 30.306 30.306 26 3.42 m/h 0 %


Bahawalpur's Tourist Spots

Historical Places in Bahawalpur

Famous Cities (60)